createdAt,value
2019-02-09T00:02:38.642Z,8.60
2019-02-09T00:08:40.856Z,9.75
2019-02-09T00:14:42.993Z,8.38
2019-02-09T00:20:45.219Z,8.63
2019-02-09T00:26:47.410Z,7.90
2019-02-09T00:32:49.560Z,8.48
2019-02-09T00:38:52.772Z,7.85
2019-02-09T00:44:54.916Z,8.50
2019-02-09T00:50:57.041Z,6.85
2019-02-09T00:56:59.389Z,6.50
2019-02-09T01:03:01.511Z,8.40
2019-02-09T01:09:09.528Z,7.95
2019-02-09T01:15:13.236Z,7.28
2019-02-09T01:21:15.423Z,7.45
2019-02-09T01:27:20.864Z,7.83
2019-02-09T01:33:23.063Z,6.87
2019-02-09T01:39:25.271Z,7.90
2019-02-09T01:45:28.411Z,7.65
2019-02-09T01:51:30.775Z,7.75
2019-02-09T01:57:32.950Z,7.12
2019-02-09T02:03:35.228Z,7.03
2019-02-09T02:09:37.403Z,7.17
2019-02-09T02:15:39.782Z,7.10
2019-02-09T02:21:42.039Z,6.42
2019-02-09T02:27:44.243Z,8.98
2019-02-09T02:33:46.373Z,7.28
2019-02-09T02:39:48.756Z,7.70
2019-02-09T02:45:51.116Z,8.28
2019-02-09T02:51:53.230Z,7.20
2019-02-09T02:57:55.480Z,6.35
2019-02-09T03:03:57.705Z,7.30
2019-02-09T03:10:00.019Z,8.40
2019-02-09T03:16:02.296Z,9.95
2019-02-09T03:22:04.416Z,8.23
2019-02-09T03:28:06.653Z,8.23
2019-02-09T03:34:08.811Z,7.28
2019-02-09T03:40:13.303Z,8.05
2019-02-09T03:46:15.445Z,8.98
2019-02-09T03:52:18.678Z,8.18
2019-02-09T03:58:20.815Z,9.50
2019-02-09T04:04:22.935Z,8.98
2019-02-09T04:10:25.232Z,10.35
2019-02-09T04:16:27.516Z,7.12
2019-02-09T04:22:29.747Z,9.45
2019-02-09T04:28:31.926Z,8.30
2019-02-09T04:34:34.034Z,8.98
2019-02-09T04:40:36.209Z,6.30
2019-02-09T04:46:38.309Z,6.65
2019-02-09T04:52:40.453Z,5.72
2019-02-09T04:58:42.647Z,6.95
2019-02-09T05:04:44.780Z,6.90
2019-02-09T05:10:46.931Z,7.42
2019-02-09T05:17:08.612Z,7.80
2019-02-09T05:23:10.775Z,7.95
2019-02-09T05:29:13.019Z,7.40
2019-02-09T05:35:15.282Z,7.50
2019-02-09T05:41:17.423Z,7.85
2019-02-09T05:47:19.647Z,7.60
2019-02-09T05:53:21.797Z,7.78
2019-02-09T05:59:24.028Z,7.75
2019-02-09T06:05:26.186Z,10.00
2019-02-09T06:11:28.515Z,7.80
2019-02-09T06:17:30.663Z,6.37
2019-02-09T06:23:33.056Z,5.85
2019-02-09T06:29:35.288Z,6.85
2019-02-09T06:35:37.495Z,6.62
2019-02-09T06:41:39.820Z,7.95
2019-02-09T06:47:42.135Z,8.05
2019-02-09T06:53:44.340Z,7.60
2019-02-09T06:59:46.671Z,8.15
2019-02-09T07:05:49.207Z,8.98
2019-02-09T07:11:51.436Z,10.15
2019-02-09T07:17:53.591Z,9.73
2019-02-09T07:23:55.889Z,8.10
2019-02-09T07:29:58.365Z,8.03
2019-02-09T07:36:00.592Z,8.75
2019-02-09T07:42:03.242Z,7.15
2019-02-09T07:48:05.715Z,8.73
2019-02-09T07:54:09.182Z,6.90
2019-02-09T08:00:19.934Z,6.83
2019-02-09T08:06:22.311Z,7.10
2019-02-09T08:12:24.669Z,6.40
2019-02-09T08:18:26.894Z,6.65
2019-02-09T08:24:30.375Z,5.90
2019-02-09T08:30:35.517Z,6.03
2019-02-09T08:36:39.783Z,6.67
2019-02-09T08:42:41.933Z,7.47
2019-02-09T08:48:44.085Z,9.40
2019-02-09T08:54:46.705Z,12.25
2019-02-09T09:00:49.226Z,12.30
2019-02-09T09:06:51.492Z,13.18
2019-02-09T09:12:53.766Z,12.15
2019-02-09T09:18:56.007Z,12.15
2019-02-09T09:24:58.412Z,15.55
2019-02-09T09:31:01.849Z,11.38
2019-02-09T09:37:04.249Z,15.38
2019-02-09T09:43:06.675Z,15.23
2019-02-09T09:49:09.594Z,14.98
2019-02-09T09:55:12.835Z,15.38
2019-02-09T10:01:16.042Z,14.55
2019-02-09T10:07:19.231Z,17.05
2019-02-09T10:13:21.475Z,13.88
2019-02-09T10:19:23.718Z,16.48
2019-02-09T10:25:25.987Z,15.95
2019-02-09T10:31:29.535Z,20.23
2019-02-09T10:37:33.886Z,16.80
2019-02-09T10:43:37.143Z,16.80
2019-02-09T10:49:40.654Z,15.95
2019-02-09T10:55:42.808Z,15.25
2019-02-09T11:01:44.957Z,15.50
2019-02-09T11:07:47.256Z,15.25
2019-02-09T11:13:49.791Z,12.90
2019-02-09T11:19:52.099Z,13.35
2019-02-09T11:25:54.353Z,13.98
2019-02-09T11:31:56.768Z,12.75
2019-02-09T11:38:01.107Z,13.48
2019-02-09T11:44:03.451Z,12.58
2019-02-09T11:50:11.139Z,14.65
2019-02-09T11:56:15.637Z,14.83
2019-02-09T12:02:19.077Z,12.70
2019-02-09T12:08:23.404Z,13.85
2019-02-09T12:14:27.685Z,12.53
2019-02-09T12:20:29.862Z,11.55
2019-02-09T12:26:32.275Z,13.10
2019-02-09T12:32:39.837Z,11.45
2019-02-09T12:38:42.131Z,12.90
2019-02-09T12:44:44.377Z,10.88
2019-02-09T12:50:47.724Z,10.13
2019-02-09T12:56:51.177Z,11.73
2019-02-09T13:02:54.065Z,11.70
2019-02-09T13:08:56.400Z,9.30
2019-02-09T13:14:58.686Z,10.63
2019-02-09T13:21:00.864Z,9.93
2019-02-09T13:27:03.198Z,10.05
2019-02-09T13:33:06.887Z,10.32
2019-02-09T13:39:11.164Z,9.60
2019-02-09T13:45:20.446Z,12.95
2019-02-09T13:51:22.810Z,12.55
2019-02-09T13:57:25.159Z,12.40
2019-02-09T14:03:27.427Z,14.50
2019-02-09T14:09:32.308Z,13.98
2019-02-09T14:15:34.638Z,14.13
2019-02-09T14:21:36.808Z,13.90
2019-02-09T14:27:39.155Z,12.85
2019-02-09T14:33:41.587Z,15.63
2019-02-09T14:39:45.861Z,14.40
2019-02-09T14:45:48.240Z,14.25
2019-02-09T14:51:50.593Z,14.25
2019-02-09T14:57:55.801Z,14.00
2019-02-09T15:04:02.801Z,14.13
2019-02-09T15:10:04.429Z,13.90
2019-02-09T15:16:31.906Z,24.43
2019-02-09T15:22:36.256Z,14.13
2019-02-09T15:28:40.015Z,13.53
2019-02-09T15:34:46.397Z,13.35
2019-02-09T15:40:54.687Z,13.05
2019-02-09T15:46:56.915Z,12.98
2019-02-09T15:53:01.616Z,13.78
2019-02-09T15:59:04.291Z,13.48
2019-02-09T16:05:07.735Z,11.78
2019-02-09T16:11:10.795Z,12.53
2019-02-09T16:17:13.184Z,12.33
2019-02-09T16:23:16.640Z,12.63
2019-02-09T16:29:19.179Z,18.35
2019-02-09T16:35:23.179Z,18.45
2019-02-09T16:41:25.724Z,16.65
2019-02-09T16:47:27.979Z,14.33
2019-02-09T16:53:30.392Z,15.28
2019-02-09T16:59:32.728Z,14.20
2019-02-09T17:05:34.918Z,14.20
2019-02-09T17:11:39.226Z,21.07
2019-02-09T17:17:41.604Z,17.37
2019-02-09T17:23:43.782Z,23.15
2019-02-09T17:29:46.094Z,15.35
2019-02-09T17:35:49.984Z,18.02
2019-02-09T17:41:54.043Z,19.02
2019-02-09T17:47:56.711Z,25.40
2019-02-09T17:53:58.937Z,22.77
2019-02-09T18:00:01.415Z,18.30
2019-02-09T18:06:03.877Z,18.30
2019-02-09T18:12:06.129Z,17.17
2019-02-09T18:18:08.575Z,20.43
2019-02-09T18:24:10.997Z,24.82
2019-02-09T18:30:15.825Z,41.60
2019-02-09T18:36:18.467Z,36.17
2019-02-09T18:42:20.804Z,18.67
2019-02-09T18:48:23.277Z,24.43
2019-02-09T18:54:25.480Z,18.12
2019-02-09T19:00:29.513Z,17.07
2019-02-09T19:06:32.166Z,20.12
2019-02-09T19:12:34.580Z,16.87
2019-02-09T19:18:37.060Z,16.97
2019-02-09T19:24:39.436Z,25.35
2019-02-09T19:30:41.821Z,16.65
2019-02-09T19:36:46.531Z,16.95
2019-02-09T19:42:50.945Z,18.17
2019-02-09T19:48:53.248Z,17.50
2019-02-09T19:54:55.490Z,15.80
2019-02-09T20:00:57.835Z,16.57
2019-02-09T20:07:00.288Z,16.42
2019-02-09T20:13:02.787Z,18.23
2019-02-09T20:19:05.156Z,19.05
2019-02-09T20:25:10.519Z,17.82
2019-02-09T20:31:12.944Z,18.98
2019-02-09T20:37:16.433Z,17.77
2019-02-09T20:43:19.241Z,19.45
2019-02-09T20:49:21.447Z,19.32
2019-02-09T20:55:23.863Z,19.30
2019-02-09T21:01:26.448Z,25.00
2019-02-09T21:07:29.992Z,18.92
2019-02-09T21:13:32.367Z,28.60
2019-02-09T21:19:34.755Z,58.55
2019-02-09T21:25:38.906Z,56.00
2019-02-09T21:31:41.260Z,49.18
2019-02-09T21:37:45.497Z,37.13
2019-02-09T21:43:47.736Z,40.35
2019-02-09T21:49:52.087Z,41.02
2019-02-09T21:55:54.369Z,19.50
2019-02-09T22:01:56.618Z,17.55
2019-02-09T22:07:58.820Z,17.57
2019-02-09T22:14:01.126Z,14.28
2019-02-09T22:20:06.801Z,14.63
2019-02-09T22:26:13.218Z,15.38
2019-02-09T22:32:13.100Z,17.27
2019-02-09T22:38:17.111Z,17.07
2019-02-09T22:44:19.352Z,17.70
2019-02-09T22:50:24.056Z,16.10
2019-02-09T22:56:26.262Z,17.35
2019-02-09T23:02:28.450Z,15.10
2019-02-09T23:08:30.628Z,14.30
2019-02-09T23:14:32.787Z,14.03
2019-02-09T23:20:35.095Z,13.35
2019-02-09T23:26:37.275Z,13.15
2019-02-09T23:32:39.571Z,14.45
2019-02-09T23:38:41.794Z,14.50
2019-02-09T23:44:45.635Z,14.50
2019-02-09T23:50:48.006Z,16.25
2019-02-09T23:56:50.180Z,14.25
